CheckWX is a tool to help pilots better visualize weather data.  It is not intended as a substitute for an official pre-flight weather briefing.

18:27:27 UTC

VTUD METAR
Udon Thani Airport
Udon Thani, Thailand
Current

3 hours ago

VTUD 201500Z 09005KT 9000 NSC 25/15 Q1018 NOSIG
Observed
Feb-20 @ 15:00 UTC
Wind
  • 090° at 5 KTS
Visibility
9,000 meters
Flight Rules
VFR
Cloud Levels
  • Clear skies
Temperature
25°C / 77°F
Dewpoint
15°C / 59°F
Humidity
54%
Altimeter
30.06" Hg
Pressure
1017.92 hPa
Previous

4 hours ago

VTUD 201400Z 00000KT 9000 NSC 24/15 Q1017 NOSIG
Observed
Feb-20 @ 14:00 UTC
Visibility
9,000 meters
Flight Rules
VFR
Cloud Levels
  • Clear skies
Temperature
24°C / 75°F
Dewpoint
15°C / 59°F
Humidity
57%
Altimeter
30.03" Hg
Pressure
1016.92 hPa
Previous

5 hours ago

VTUD 201300Z 00000KT 9000 NSC 25/15 Q1016 NOSIG
Observed
Feb-20 @ 13:00 UTC
Visibility
9,000 meters
Flight Rules
VFR
Cloud Levels
  • Clear skies
Temperature
25°C / 77°F
Dewpoint
15°C / 59°F
Humidity
54%
Altimeter
30" Hg
Pressure
1015.92 hPa